sensor_id;sensor_type;location;lat;lon;timestamp;P1;durP1;ratioP1;P2;durP2;ratioP2
22778;SDS011;11556;51.194;3.800;2023-08-31T00:01:41;16.52;;;9.25;;
22778;SDS011;11556;51.194;3.800;2023-08-31T00:04:07;15.82;;;8.63;;
22778;SDS011;11556;51.194;3.800;2023-08-31T00:09:10;14.85;;;8.77;;
22778;SDS011;11556;51.194;3.800;2023-08-31T00:11:36;15.90;;;9.15;;
22778;SDS011;11556;51.194;3.800;2023-08-31T00:14:02;18.65;;;9.30;;
22778;SDS011;11556;51.194;3.800;2023-08-31T00:16:28;15.50;;;9.60;;
22778;SDS011;11556;51.194;3.800;2023-08-31T00:18:55;13.48;;;9.50;;
22778;SDS011;11556;51.194;3.800;2023-08-31T00:21:21;17.52;;;10.40;;
22778;SDS011;11556;51.194;3.800;2023-08-31T00:23:47;14.98;;;9.48;;
22778;SDS011;11556;51.194;3.800;2023-08-31T00:26:13;17.45;;;9.77;;
22778;SDS011;11556;51.194;3.800;2023-08-31T00:28:42;17.25;;;9.88;;
22778;SDS011;11556;51.194;3.800;2023-08-31T00:31:09;16.20;;;9.40;;
22778;SDS011;11556;51.194;3.800;2023-08-31T00:33:35;16.80;;;9.02;;
22778;SDS011;11556;51.194;3.800;2023-08-31T00:36:03;12.32;;;8.90;;
22778;SDS011;11556;51.194;3.800;2023-08-31T00:38:30;14.82;;;8.93;;
22778;SDS011;11556;51.194;3.800;2023-08-31T00:40:56;14.30;;;9.48;;
22778;SDS011;11556;51.194;3.800;2023-08-31T00:43:22;17.05;;;9.65;;
22778;SDS011;11556;51.194;3.800;2023-08-31T00:45:48;15.52;;;9.45;;
22778;SDS011;11556;51.194;3.800;2023-08-31T00:48:16;16.30;;;9.18;;
22778;SDS011;11556;51.194;3.800;2023-08-31T00:50:45;16.95;;;9.55;;
22778;SDS011;11556;51.194;3.800;2023-08-31T00:53:11;13.75;;;9.40;;
22778;SDS011;11556;51.194;3.800;2023-08-31T00:55:37;16.92;;;9.45;;
22778;SDS011;11556;51.194;3.800;2023-08-31T00:58:06;15.98;;;9.43;;
22778;SDS011;11556;51.194;3.800;2023-08-31T01:03:39;17.50;;;9.57;;
22778;SDS011;11556;51.194;3.800;2023-08-31T01:08:49;19.65;;;10.48;;
22778;SDS011;11556;51.194;3.800;2023-08-31T01:11:37;17.88;;;9.82;;
22778;SDS011;11556;51.194;3.800;2023-08-31T01:14:16;15.45;;;9.50;;
22778;SDS011;11556;51.194;3.800;2023-08-31T01:16:44;15.68;;;9.82;;
22778;SDS011;11556;51.194;3.800;2023-08-31T01:19:17;15.77;;;9.82;;
22778;SDS011;11556;51.194;3.800;2023-08-31T01:21:57;16.92;;;9.82;;
22778;SDS011;11556;51.194;3.800;2023-08-31T01:24:28;18.92;;;10.07;;
22778;SDS011;11556;51.194;3.800;2023-08-31T01:26:56;19.13;;;10.50;;
22778;SDS011;11556;51.194;3.800;2023-08-31T01:29:22;19.52;;;9.63;;
22778;SDS011;11556;51.194;3.800;2023-08-31T01:31:48;20.05;;;10.02;;
22778;SDS011;11556;51.194;3.800;2023-08-31T01:34:13;19.05;;;9.68;;
22778;SDS011;11556;51.194;3.800;2023-08-31T01:36:41;14.98;;;10.30;;
22778;SDS011;11556;51.194;3.800;2023-08-31T01:39:23;17.17;;;10.02;;
22778;SDS011;11556;51.194;3.800;2023-08-31T01:41:55;16.48;;;10.73;;
22778;SDS011;11556;51.194;3.800;2023-08-31T01:44:25;15.77;;;10.23;;
22778;SDS011;11556;51.194;3.800;2023-08-31T01:46:54;15.63;;;10.15;;
22778;SDS011;11556;51.194;3.800;2023-08-31T01:49:23;19.38;;;10.30;;
22778;SDS011;11556;51.194;3.800;2023-08-31T01:51:49;19.42;;;10.60;;
22778;SDS011;11556;51.194;3.800;2023-08-31T01:54:15;19.48;;;10.98;;
22778;SDS011;11556;51.194;3.800;2023-08-31T01:56:41;15.45;;;10.82;;
22778;SDS011;11556;51.194;3.800;2023-08-31T01:59:06;17.60;;;11.27;;
22778;SDS011;11556;51.194;3.800;2023-08-31T02:01:32;15.40;;;10.70;;
22778;SDS011;11556;51.194;3.800;2023-08-31T02:03:58;14.75;;;10.68;;
22778;SDS011;11556;51.194;3.800;2023-08-31T02:06:24;16.27;;;9.80;;
22778;SDS011;11556;51.194;3.800;2023-08-31T02:08:49;19.15;;;10.15;;
22778;SDS011;11556;51.194;3.800;2023-08-31T02:11:15;14.55;;;10.68;;
22778;SDS011;11556;51.194;3.800;2023-08-31T02:13:41;18.83;;;10.55;;
22778;SDS011;11556;51.194;3.800;2023-08-31T02:16:07;13.88;;;10.20;;
22778;SDS011;11556;51.194;3.800;2023-08-31T02:18:33;17.40;;;10.77;;
22778;SDS011;11556;51.194;3.800;2023-08-31T02:20:58;16.92;;;10.82;;
22778;SDS011;11556;51.194;3.800;2023-08-31T02:23:24;16.52;;;10.68;;
22778;SDS011;11556;51.194;3.800;2023-08-31T02:25:50;14.57;;;10.07;;
22778;SDS011;11556;51.194;3.800;2023-08-31T02:28:15;17.95;;;10.82;;
22778;SDS011;11556;51.194;3.800;2023-08-31T02:30:43;15.32;;;10.60;;
22778;SDS011;11556;51.194;3.800;2023-08-31T02:33:11;18.02;;;10.82;;
22778;SDS011;11556;51.194;3.800;2023-08-31T02:35:37;18.05;;;11.85;;
22778;SDS011;11556;51.194;3.800;2023-08-31T02:38:02;19.40;;;11.55;;
22778;SDS011;11556;51.194;3.800;2023-08-31T02:40:28;20.95;;;12.43;;
22778;SDS011;11556;51.194;3.800;2023-08-31T02:42:54;20.27;;;13.00;;
22778;SDS011;11556;51.194;3.800;2023-08-31T02:45:19;19.88;;;13.90;;
22778;SDS011;11556;51.194;3.800;2023-08-31T02:47:45;19.55;;;13.32;;
22778;SDS011;11556;51.194;3.800;2023-08-31T02:50:11;20.58;;;12.05;;
22778;SDS011;11556;51.194;3.800;2023-08-31T02:52:37;19.60;;;11.57;;
22778;SDS011;11556;51.194;3.800;2023-08-31T02:55:03;17.52;;;11.85;;
22778;SDS011;11556;51.194;3.800;2023-08-31T02:57:29;21.85;;;11.85;;
22778;SDS011;11556;51.194;3.800;2023-08-31T02:59:55;19.85;;;11.48;;
22778;SDS011;11556;51.194;3.800;2023-08-31T03:02:21;17.90;;;10.98;;
22778;SDS011;11556;51.194;3.800;2023-08-31T03:04:47;16.30;;;11.32;;
22778;SDS011;11556;51.194;3.800;2023-08-31T03:07:12;17.80;;;10.68;;
22778;SDS011;11556;51.194;3.800;2023-08-31T03:09:40;19.95;;;11.10;;
22778;SDS011;11556;51.194;3.800;2023-08-31T03:12:06;17.60;;;11.15;;
22778;SDS011;11556;51.194;3.800;2023-08-31T03:14:32;17.67;;;11.40;;
22778;SDS011;11556;51.194;3.800;2023-08-31T03:16:57;19.00;;;10.82;;
22778;SDS011;11556;51.194;3.800;2023-08-31T03:19:23;16.27;;;11.30;;
22778;SDS011;11556;51.194;3.800;2023-08-31T03:21:49;22.52;;;11.32;;
22778;SDS011;11556;51.194;3.800;2023-08-31T03:24:15;21.13;;;11.15;;
22778;SDS011;11556;51.194;3.800;2023-08-31T03:26:40;16.52;;;10.63;;
22778;SDS011;11556;51.194;3.800;2023-08-31T03:29:06;18.65;;;10.45;;
22778;SDS011;11556;51.194;3.800;2023-08-31T03:31:32;18.10;;;11.13;;
22778;SDS011;11556;51.194;3.800;2023-08-31T03:33:58;20.05;;;10.07;;
22778;SDS011;11556;51.194;3.800;2023-08-31T03:36:24;20.90;;;10.40;;
22778;SDS011;11556;51.194;3.800;2023-08-31T03:38:49;17.10;;;10.55;;
22778;SDS011;11556;51.194;3.800;2023-08-31T03:41:15;17.65;;;10.13;;
22778;SDS011;11556;51.194;3.800;2023-08-31T03:43:41;18.77;;;9.90;;
22778;SDS011;11556;51.194;3.800;2023-08-31T03:46:06;19.52;;;10.43;;
22778;SDS011;11556;51.194;3.800;2023-08-31T03:48:32;18.17;;;10.15;;
22778;SDS011;11556;51.194;3.800;2023-08-31T03:50:57;18.65;;;9.77;;
22778;SDS011;11556;51.194;3.800;2023-08-31T03:53:23;14.38;;;9.15;;
22778;SDS011;11556;51.194;3.800;2023-08-31T03:55:49;17.75;;;9.77;;
22778;SDS011;11556;51.194;3.800;2023-08-31T03:58:15;17.67;;;9.43;;
22778;SDS011;11556;51.194;3.800;2023-08-31T04:00:41;22.30;;;9.27;;
22778;SDS011;11556;51.194;3.800;2023-08-31T04:03:08;19.17;;;10.48;;
22778;SDS011;11556;51.194;3.800;2023-08-31T04:05:34;17.45;;;10.10;;
22778;SDS011;11556;51.194;3.800;2023-08-31T04:08:01;17.40;;;10.70;;
22778;SDS011;11556;51.194;3.800;2023-08-31T04:10:27;17.65;;;11.18;;
22778;SDS011;11556;51.194;3.800;2023-08-31T04:12:54;17.13;;;10.63;;
22778;SDS011;11556;51.194;3.800;2023-08-31T04:15:20;22.48;;;10.55;;
22778;SDS011;11556;51.194;3.800;2023-08-31T04:17:46;24.98;;;12.02;;
22778;SDS011;11556;51.194;3.800;2023-08-31T04:20:12;19.63;;;11.55;;
22778;SDS011;11556;51.194;3.800;2023-08-31T04:22:37;23.60;;;11.27;;
22778;SDS011;11556;51.194;3.800;2023-08-31T04:25:03;20.45;;;11.48;;
22778;SDS011;11556;51.194;3.800;2023-08-31T04:27:29;23.40;;;11.25;;
22778;SDS011;11556;51.194;3.800;2023-08-31T04:29:56;21.05;;;11.75;;
22778;SDS011;11556;51.194;3.800;2023-08-31T04:32:24;22.90;;;11.95;;
22778;SDS011;11556;51.194;3.800;2023-08-31T04:34:50;25.13;;;11.77;;
22778;SDS011;11556;51.194;3.800;2023-08-31T04:37:16;24.85;;;12.10;;
22778;SDS011;11556;51.194;3.800;2023-08-31T04:39:42;22.83;;;11.60;;
22778;SDS011;11556;51.194;3.800;2023-08-31T04:42:08;21.48;;;11.05;;
22778;SDS011;11556;51.194;3.800;2023-08-31T04:44:34;23.20;;;12.00;;
22778;SDS011;11556;51.194;3.800;2023-08-31T04:47:00;21.67;;;11.70;;
22778;SDS011;11556;51.194;3.800;2023-08-31T04:49:26;20.02;;;11.15;;
22778;SDS011;11556;51.194;3.800;2023-08-31T04:51:52;20.48;;;10.90;;
22778;SDS011;11556;51.194;3.800;2023-08-31T04:54:18;22.05;;;11.13;;
22778;SDS011;11556;51.194;3.800;2023-08-31T04:56:43;24.23;;;11.20;;
22778;SDS011;11556;51.194;3.800;2023-08-31T04:59:09;23.98;;;11.13;;
22778;SDS011;11556;51.194;3.800;2023-08-31T05:01:35;18.55;;;10.57;;
22778;SDS011;11556;51.194;3.800;2023-08-31T05:04:01;21.75;;;10.75;;
22778;SDS011;11556;51.194;3.800;2023-08-31T05:06:27;17.83;;;10.15;;
22778;SDS011;11556;51.194;3.800;2023-08-31T05:08:53;22.58;;;10.15;;
22778;SDS011;11556;51.194;3.800;2023-08-31T05:11:19;26.60;;;10.00;;
22778;SDS011;11556;51.194;3.800;2023-08-31T05:13:44;24.95;;;10.20;;
22778;SDS011;11556;51.194;3.800;2023-08-31T05:16:10;25.65;;;9.80;;
22778;SDS011;11556;51.194;3.800;2023-08-31T05:18:37;23.33;;;9.75;;
22778;SDS011;11556;51.194;3.800;2023-08-31T05:21:03;19.88;;;9.57;;
22778;SDS011;11556;51.194;3.800;2023-08-31T05:23:29;21.08;;;10.48;;
22778;SDS011;11556;51.194;3.800;2023-08-31T05:25:55;21.58;;;12.00;;
22778;SDS011;11556;51.194;3.800;2023-08-31T05:28:26;29.85;;;14.73;;
22778;SDS011;11556;51.194;3.800;2023-08-31T05:30:53;29.77;;;12.30;;
22778;SDS011;11556;51.194;3.800;2023-08-31T05:33:20;25.23;;;11.43;;
22778;SDS011;11556;51.194;3.800;2023-08-31T05:35:47;19.33;;;9.43;;
22778;SDS011;11556;51.194;3.800;2023-08-31T05:38:13;25.77;;;9.68;;
22778;SDS011;11556;51.194;3.800;2023-08-31T05:40:39;22.27;;;9.20;;
22778;SDS011;11556;51.194;3.800;2023-08-31T05:43:04;18.13;;;9.82;;
22778;SDS011;11556;51.194;3.800;2023-08-31T05:45:33;21.17;;;10.30;;
22778;SDS011;11556;51.194;3.800;2023-08-31T05:47:59;22.85;;;10.15;;
22778;SDS011;11556;51.194;3.800;2023-08-31T05:50:26;22.20;;;9.68;;
22778;SDS011;11556;51.194;3.800;2023-08-31T05:52:52;17.42;;;8.52;;
22778;SDS011;11556;51.194;3.800;2023-08-31T05:55:19;21.45;;;9.70;;
22778;SDS011;11556;51.194;3.800;2023-08-31T05:57:45;19.85;;;8.98;;
22778;SDS011;11556;51.194;3.800;2023-08-31T06:00:11;16.52;;;8.25;;
22778;SDS011;11556;51.194;3.800;2023-08-31T06:02:37;16.10;;;8.10;;
22778;SDS011;11556;51.194;3.800;2023-08-31T06:05:03;19.80;;;8.50;;
22778;SDS011;11556;51.194;3.800;2023-08-31T06:07:29;15.13;;;7.72;;
22778;SDS011;11556;51.194;3.800;2023-08-31T06:09:56;14.25;;;7.75;;
22778;SDS011;11556;51.194;3.800;2023-08-31T06:12:22;12.23;;;7.20;;
22778;SDS011;11556;51.194;3.800;2023-08-31T06:14:48;15.65;;;7.47;;
22778;SDS011;11556;51.194;3.800;2023-08-31T06:17:13;9.68;;;6.03;;
22778;SDS011;11556;51.194;3.800;2023-08-31T06:19:40;13.07;;;6.18;;
22778;SDS011;11556;51.194;3.800;2023-08-31T06:22:06;14.43;;;5.80;;
22778;SDS011;11556;51.194;3.800;2023-08-31T06:24:32;13.43;;;5.60;;
22778;SDS011;11556;51.194;3.800;2023-08-31T06:26:59;11.52;;;5.55;;
22778;SDS011;11556;51.194;3.800;2023-08-31T06:29:25;12.27;;;4.63;;
22778;SDS011;11556;51.194;3.800;2023-08-31T06:31:51;10.90;;;4.78;;
22778;SDS011;11556;51.194;3.800;2023-08-31T06:34:17;9.15;;;4.40;;
22778;SDS011;11556;51.194;3.800;2023-08-31T06:36:42;14.88;;;4.45;;
22778;SDS011;11556;51.194;3.800;2023-08-31T06:39:08;10.20;;;4.35;;
22778;SDS011;11556;51.194;3.800;2023-08-31T06:41:34;11.98;;;4.55;;
22778;SDS011;11556;51.194;3.800;2023-08-31T06:43:59;11.07;;;4.10;;
22778;SDS011;11556;51.194;3.800;2023-08-31T06:46:25;15.73;;;4.40;;
22778;SDS011;11556;51.194;3.800;2023-08-31T06:48:51;9.68;;;4.05;;
22778;SDS011;11556;51.194;3.800;2023-08-31T06:51:17;11.10;;;4.68;;
22778;SDS011;11556;51.194;3.800;2023-08-31T06:53:43;5.72;;;3.90;;
22778;SDS011;11556;51.194;3.800;2023-08-31T06:56:09;9.95;;;4.03;;
22778;SDS011;11556;51.194;3.800;2023-08-31T06:58:35;12.20;;;4.40;;
22778;SDS011;11556;51.194;3.800;2023-08-31T07:01:00;12.13;;;4.18;;
22778;SDS011;11556;51.194;3.800;2023-08-31T07:03:30;10.73;;;4.05;;
22778;SDS011;11556;51.194;3.800;2023-08-31T07:05:56;10.02;;;3.60;;
22778;SDS011;11556;51.194;3.800;2023-08-31T07:08:22;10.10;;;3.65;;
22778;SDS011;11556;51.194;3.800;2023-08-31T07:10:49;10.85;;;4.07;;
22778;SDS011;11556;51.194;3.800;2023-08-31T07:13:15;8.60;;;3.67;;
22778;SDS011;11556;51.194;3.800;2023-08-31T07:15:41;10.90;;;3.22;;
22778;SDS011;11556;51.194;3.800;2023-08-31T07:18:06;9.02;;;3.22;;
22778;SDS011;11556;51.194;3.800;2023-08-31T07:20:33;9.90;;;3.60;;
22778;SDS011;11556;51.194;3.800;2023-08-31T07:22:58;6.28;;;3.28;;
22778;SDS011;11556;51.194;3.800;2023-08-31T07:25:24;10.15;;;3.40;;
22778;SDS011;11556;51.194;3.800;2023-08-31T07:27:50;11.77;;;3.40;;
22778;SDS011;11556;51.194;3.800;2023-08-31T07:30:16;10.32;;;3.38;;
22778;SDS011;11556;51.194;3.800;2023-08-31T07:32:42;8.02;;;3.50;;
22778;SDS011;11556;51.194;3.800;2023-08-31T07:35:07;7.63;;;3.55;;
22778;SDS011;11556;51.194;3.800;2023-08-31T07:37:34;8.25;;;3.65;;
22778;SDS011;11556;51.194;3.800;2023-08-31T07:40:00;8.00;;;3.20;;
22778;SDS011;11556;51.194;3.800;2023-08-31T07:42:26;6.22;;;3.08;;
22778;SDS011;11556;51.194;3.800;2023-08-31T07:44:51;10.98;;;3.22;;
22778;SDS011;11556;51.194;3.800;2023-08-31T07:47:17;8.85;;;3.08;;
22778;SDS011;11556;51.194;3.800;2023-08-31T07:49:43;14.52;;;3.80;;
22778;SDS011;11556;51.194;3.800;2023-08-31T07:52:09;7.32;;;3.38;;
22778;SDS011;11556;51.194;3.800;2023-08-31T07:54:34;7.25;;;3.42;;
22778;SDS011;11556;51.194;3.800;2023-08-31T07:57:00;7.95;;;2.92;;
22778;SDS011;11556;51.194;3.800;2023-08-31T07:59:26;7.70;;;3.38;;
22778;SDS011;11556;51.194;3.800;2023-08-31T08:01:52;8.70;;;3.13;;
22778;SDS011;11556;51.194;3.800;2023-08-31T08:04:18;8.38;;;3.63;;
22778;SDS011;11556;51.194;3.800;2023-08-31T08:06:44;6.28;;;3.10;;
22778;SDS011;11556;51.194;3.800;2023-08-31T08:09:10;8.75;;;3.53;;
22778;SDS011;11556;51.194;3.800;2023-08-31T08:11:38;9.02;;;3.42;;
22778;SDS011;11556;51.194;3.800;2023-08-31T08:14:04;8.43;;;3.28;;
22778;SDS011;11556;51.194;3.800;2023-08-31T08:16:29;9.82;;;3.58;;
22778;SDS011;11556;51.194;3.800;2023-08-31T08:18:55;10.18;;;3.47;;
22778;SDS011;11556;51.194;3.800;2023-08-31T08:21:21;8.07;;;3.33;;
22778;SDS011;11556;51.194;3.800;2023-08-31T08:23:46;8.52;;;3.20;;
22778;SDS011;11556;51.194;3.800;2023-08-31T08:26:15;10.25;;;3.42;;
22778;SDS011;11556;51.194;3.800;2023-08-31T08:28:41;10.20;;;3.72;;
22778;SDS011;11556;51.194;3.800;2023-08-31T08:31:06;7.63;;;3.42;;
22778;SDS011;11556;51.194;3.800;2023-08-31T08:33:32;8.35;;;3.45;;
22778;SDS011;11556;51.194;3.800;2023-08-31T08:35:58;8.40;;;3.30;;
22778;SDS011;11556;51.194;3.800;2023-08-31T08:38:24;9.43;;;6.70;;
22778;SDS011;11556;51.194;3.800;2023-08-31T08:40:50;10.30;;;3.35;;
22778;SDS011;11556;51.194;3.800;2023-08-31T08:43:16;9.68;;;3.42;;
22778;SDS011;11556;51.194;3.800;2023-08-31T08:45:49;6.78;;;3.10;;
22778;SDS011;11556;51.194;3.800;2023-08-31T08:48:16;13.52;;;3.53;;
22778;SDS011;11556;51.194;3.800;2023-08-31T08:50:43;8.95;;;3.47;;
22778;SDS011;11556;51.194;3.800;2023-08-31T08:53:10;8.45;;;3.60;;
22778;SDS011;11556;51.194;3.800;2023-08-31T08:55:38;8.55;;;3.38;;
22778;SDS011;11556;51.194;3.800;2023-08-31T08:58:05;7.82;;;3.20;;
22778;SDS011;11556;51.194;3.800;2023-08-31T09:00:31;8.57;;;3.33;;
22778;SDS011;11556;51.194;3.800;2023-08-31T09:02:57;6.53;;;3.75;;
22778;SDS011;11556;51.194;3.800;2023-08-31T09:05:25;9.80;;;3.53;;
22778;SDS011;11556;51.194;3.800;2023-08-31T09:10:54;8.48;;;4.10;;
22778;SDS011;11556;51.194;3.800;2023-08-31T09:13:25;9.93;;;3.97;;
22778;SDS011;11556;51.194;3.800;2023-08-31T09:15:52;5.72;;;3.45;;
22778;SDS011;11556;51.194;3.800;2023-08-31T09:18:24;9.32;;;3.25;;
22778;SDS011;11556;51.194;3.800;2023-08-31T09:20:55;6.53;;;3.13;;
22778;SDS011;11556;51.194;3.800;2023-08-31T09:23:24;8.82;;;3.70;;
22778;SDS011;11556;51.194;3.800;2023-08-31T09:25:51;7.60;;;3.50;;
22778;SDS011;11556;51.194;3.800;2023-08-31T09:28:22;6.43;;;3.30;;
22778;SDS011;11556;51.194;3.800;2023-08-31T09:30:51;7.05;;;3.25;;
22778;SDS011;11556;51.194;3.800;2023-08-31T09:33:19;6.75;;;3.35;;
22778;SDS011;11556;51.194;3.800;2023-08-31T09:38:25;7.97;;;3.42;;
22778;SDS011;11556;51.194;3.800;2023-08-31T09:40:51;7.75;;;3.80;;
22778;SDS011;11556;51.194;3.800;2023-08-31T09:43:23;8.98;;;3.78;;
22778;SDS011;11556;51.194;3.800;2023-08-31T09:45:49;10.10;;;3.83;;
22778;SDS011;11556;51.194;3.800;2023-08-31T09:48:16;5.40;;;3.13;;
22778;SDS011;11556;51.194;3.800;2023-08-31T09:50:45;6.75;;;3.72;;
22778;SDS011;11556;51.194;3.800;2023-08-31T09:53:11;10.43;;;4.03;;
22778;SDS011;11556;51.194;3.800;2023-08-31T09:55:38;6.60;;;3.97;;
22778;SDS011;11556;51.194;3.800;2023-08-31T09:58:06;15.27;;;3.90;;
22778;SDS011;11556;51.194;3.800;2023-08-31T10:00:35;7.05;;;3.95;;
22778;SDS011;11556;51.194;3.800;2023-08-31T10:03:02;10.05;;;3.40;;
22778;SDS011;11556;51.194;3.800;2023-08-31T10:05:30;8.15;;;3.17;;
22778;SDS011;11556;51.194;3.800;2023-08-31T10:07:56;7.38;;;3.25;;
22778;SDS011;11556;51.194;3.800;2023-08-31T10:10:23;6.78;;;3.60;;
22778;SDS011;11556;51.194;3.800;2023-08-31T10:12:49;6.60;;;3.88;;
22778;SDS011;11556;51.194;3.800;2023-08-31T10:15:16;9.88;;;3.33;;
22778;SDS011;11556;51.194;3.800;2023-08-31T10:17:43;8.85;;;3.00;;
22778;SDS011;11556;51.194;3.800;2023-08-31T10:20:10;7.28;;;2.70;;
22778;SDS011;11556;51.194;3.800;2023-08-31T10:22:38;9.05;;;3.05;;
22778;SDS011;11556;51.194;3.800;2023-08-31T10:25:04;8.18;;;2.30;;
22778;SDS011;11556;51.194;3.800;2023-08-31T10:27:43;3.45;;;2.00;;
22778;SDS011;11556;51.194;3.800;2023-08-31T10:33:01;8.02;;;2.88;;
22778;SDS011;11556;51.194;3.800;2023-08-31T10:38:30;6.57;;;2.10;;
22778;SDS011;11556;51.194;3.800;2023-08-31T10:46:31;5.45;;;2.30;;
22778;SDS011;11556;51.194;3.800;2023-08-31T10:51:36;6.30;;;2.17;;
22778;SDS011;11556;51.194;3.800;2023-08-31T10:54:06;4.72;;;2.03;;
22778;SDS011;11556;51.194;3.800;2023-08-31T10:56:52;6.32;;;1.80;;
22778;SDS011;11556;51.194;3.800;2023-08-31T10:59:24;5.13;;;1.95;;
22778;SDS011;11556;51.194;3.800;2023-08-31T11:01:55;5.82;;;2.47;;
22778;SDS011;11556;51.194;3.800;2023-08-31T11:04:27;5.78;;;1.88;;
22778;SDS011;11556;51.194;3.800;2023-08-31T11:07:36;6.82;;;2.22;;
22778;SDS011;11556;51.194;3.800;2023-08-31T11:09:44;5.32;;;1.90;;
22778;SDS011;11556;51.194;3.800;2023-08-31T11:12:12;8.35;;;2.17;;
22778;SDS011;11556;51.194;3.800;2023-08-31T11:14:38;8.90;;;2.13;;
22778;SDS011;11556;51.194;3.800;2023-08-31T11:17:04;5.65;;;2.30;;
22778;SDS011;11556;51.194;3.800;2023-08-31T11:19:31;6.78;;;2.10;;
22778;SDS011;11556;51.194;3.800;2023-08-31T11:21:58;5.93;;;1.83;;
22778;SDS011;11556;51.194;3.800;2023-08-31T11:24:25;3.63;;;1.77;;
22778;SDS011;11556;51.194;3.800;2023-08-31T11:26:51;5.07;;;1.98;;
22778;SDS011;11556;51.194;3.800;2023-08-31T11:29:18;3.97;;;1.98;;
22778;SDS011;11556;51.194;3.800;2023-08-31T11:31:43;4.30;;;1.92;;
22778;SDS011;11556;51.194;3.800;2023-08-31T11:34:12;3.10;;;1.92;;
22778;SDS011;11556;51.194;3.800;2023-08-31T11:36:43;9.30;;;2.30;;
22778;SDS011;11556;51.194;3.800;2023-08-31T11:39:10;5.65;;;1.98;;
22778;SDS011;11556;51.194;3.800;2023-08-31T11:41:39;4.25;;;1.90;;
22778;SDS011;11556;51.194;3.800;2023-08-31T11:44:10;6.43;;;2.13;;
22778;SDS011;11556;51.194;3.800;2023-08-31T11:46:43;5.57;;;2.08;;
22778;SDS011;11556;51.194;3.800;2023-08-31T11:51:41;6.80;;;1.80;;
22778;SDS011;11556;51.194;3.800;2023-08-31T11:54:09;9.20;;;2.20;;
22778;SDS011;11556;51.194;3.800;2023-08-31T11:56:42;4.78;;;2.00;;
22778;SDS011;11556;51.194;3.800;2023-08-31T11:59:12;7.13;;;2.08;;
22778;SDS011;11556;51.194;3.800;2023-08-31T12:01:42;4.50;;;2.10;;
22778;SDS011;11556;51.194;3.800;2023-08-31T12:04:20;7.82;;;1.98;;
22778;SDS011;11556;51.194;3.800;2023-08-31T12:06:50;4.03;;;1.80;;
22778;SDS011;11556;51.194;3.800;2023-08-31T12:09:18;5.20;;;1.65;;
22778;SDS011;11556;51.194;3.800;2023-08-31T12:11:51;4.80;;;1.73;;
22778;SDS011;11556;51.194;3.800;2023-08-31T12:14:20;3.08;;;1.88;;
22778;SDS011;11556;51.194;3.800;2023-08-31T12:16:47;4.57;;;2.13;;
22778;SDS011;11556;51.194;3.800;2023-08-31T12:19:14;7.40;;;2.20;;
22778;SDS011;11556;51.194;3.800;2023-08-31T12:21:41;3.22;;;1.95;;
22778;SDS011;11556;51.194;3.800;2023-08-31T12:24:09;6.70;;;2.45;;
22778;SDS011;11556;51.194;3.800;2023-08-31T12:26:35;8.05;;;1.67;;
22778;SDS011;11556;51.194;3.800;2023-08-31T12:29:00;11.25;;;2.10;;
22778;SDS011;11556;51.194;3.800;2023-08-31T12:31:29;7.90;;;1.90;;
22778;SDS011;11556;51.194;3.800;2023-08-31T12:33:55;6.13;;;1.92;;
22778;SDS011;11556;51.194;3.800;2023-08-31T12:36:21;7.20;;;2.20;;
22778;SDS011;11556;51.194;3.800;2023-08-31T12:38:46;8.27;;;2.03;;
22778;SDS011;11556;51.194;3.800;2023-08-31T12:41:12;7.18;;;1.90;;
22778;SDS011;11556;51.194;3.800;2023-08-31T12:43:38;7.60;;;1.73;;
22778;SDS011;11556;51.194;3.800;2023-08-31T12:46:04;5.53;;;1.92;;
22778;SDS011;11556;51.194;3.800;2023-08-31T12:48:31;6.20;;;1.80;;
22778;SDS011;11556;51.194;3.800;2023-08-31T12:50:57;10.98;;;2.40;;
22778;SDS011;11556;51.194;3.800;2023-08-31T12:53:23;4.82;;;1.80;;
22778;SDS011;11556;51.194;3.800;2023-08-31T12:55:49;7.32;;;1.88;;
22778;SDS011;11556;51.194;3.800;2023-08-31T12:58:15;8.15;;;2.22;;
22778;SDS011;11556;51.194;3.800;2023-08-31T13:00:41;7.22;;;1.92;;
22778;SDS011;11556;51.194;3.800;2023-08-31T13:03:08;6.38;;;2.00;;
22778;SDS011;11556;51.194;3.800;2023-08-31T13:05:34;7.05;;;2.22;;
22778;SDS011;11556;51.194;3.800;2023-08-31T13:08:03;5.90;;;2.30;;
22778;SDS011;11556;51.194;3.800;2023-08-31T13:10:30;7.50;;;1.92;;
22778;SDS011;11556;51.194;3.800;2023-08-31T13:12:56;5.85;;;2.10;;
22778;SDS011;11556;51.194;3.800;2023-08-31T13:15:21;8.40;;;1.60;;
22778;SDS011;11556;51.194;3.800;2023-08-31T13:17:47;9.77;;;1.88;;
22778;SDS011;11556;51.194;3.800;2023-08-31T13:20:13;5.13;;;1.48;;
22778;SDS011;11556;51.194;3.800;2023-08-31T13:22:38;7.35;;;1.90;;
22778;SDS011;11556;51.194;3.800;2023-08-31T13:25:04;6.57;;;1.73;;
22778;SDS011;11556;51.194;3.800;2023-08-31T13:27:30;4.53;;;1.70;;
22778;SDS011;11556;51.194;3.800;2023-08-31T13:29:58;5.32;;;1.73;;
22778;SDS011;11556;51.194;3.800;2023-08-31T13:32:24;10.70;;;1.85;;
22778;SDS011;11556;51.194;3.800;2023-08-31T13:34:50;5.97;;;1.70;;
22778;SDS011;11556;51.194;3.800;2023-08-31T13:37:18;8.10;;;1.77;;
22778;SDS011;11556;51.194;3.800;2023-08-31T13:39:44;4.85;;;1.60;;
22778;SDS011;11556;51.194;3.800;2023-08-31T13:42:09;10.48;;;1.80;;
22778;SDS011;11556;51.194;3.800;2023-08-31T13:44:35;7.22;;;1.60;;
22778;SDS011;11556;51.194;3.800;2023-08-31T13:47:01;5.90;;;2.10;;
22778;SDS011;11556;51.194;3.800;2023-08-31T13:49:28;8.80;;;1.55;;
22778;SDS011;11556;51.194;3.800;2023-08-31T13:51:55;6.47;;;1.83;;
22778;SDS011;11556;51.194;3.800;2023-08-31T13:54:21;9.30;;;1.90;;
22778;SDS011;11556;51.194;3.800;2023-08-31T13:56:46;3.55;;;1.52;;
22778;SDS011;11556;51.194;3.800;2023-08-31T13:59:15;3.97;;;1.70;;
22778;SDS011;11556;51.194;3.800;2023-08-31T14:01:40;5.95;;;1.80;;
22778;SDS011;11556;51.194;3.800;2023-08-31T14:04:06;8.40;;;1.80;;
22778;SDS011;11556;51.194;3.800;2023-08-31T14:06:32;4.90;;;1.65;;
22778;SDS011;11556;51.194;3.800;2023-08-31T14:08:57;7.55;;;1.88;;
22778;SDS011;11556;51.194;3.800;2023-08-31T14:11:23;7.22;;;2.13;;
22778;SDS011;11556;51.194;3.800;2023-08-31T14:13:50;8.18;;;1.90;;
22778;SDS011;11556;51.194;3.800;2023-08-31T14:16:17;5.15;;;1.50;;
22778;SDS011;11556;51.194;3.800;2023-08-31T14:18:43;6.32;;;1.83;;
22778;SDS011;11556;51.194;3.800;2023-08-31T14:21:14;9.85;;;1.92;;
22778;SDS011;11556;51.194;3.800;2023-08-31T14:23:40;6.60;;;1.90;;
22778;SDS011;11556;51.194;3.800;2023-08-31T14:26:06;8.85;;;1.77;;
22778;SDS011;11556;51.194;3.800;2023-08-31T14:28:34;5.25;;;1.98;;
22778;SDS011;11556;51.194;3.800;2023-08-31T14:31:03;6.13;;;1.92;;
22778;SDS011;11556;51.194;3.800;2023-08-31T14:33:30;10.50;;;2.13;;
22778;SDS011;11556;51.194;3.800;2023-08-31T14:35:55;15.70;;;2.75;;
22778;SDS011;11556;51.194;3.800;2023-08-31T14:38:21;7.18;;;2.00;;
22778;SDS011;11556;51.194;3.800;2023-08-31T14:40:47;8.20;;;1.95;;
22778;SDS011;11556;51.194;3.800;2023-08-31T14:43:13;6.65;;;2.30;;
22778;SDS011;11556;51.194;3.800;2023-08-31T14:45:38;9.65;;;2.40;;
22778;SDS011;11556;51.194;3.800;2023-08-31T14:48:04;8.85;;;2.30;;
22778;SDS011;11556;51.194;3.800;2023-08-31T14:50:30;14.10;;;2.53;;
22778;SDS011;11556;51.194;3.800;2023-08-31T14:52:55;11.00;;;2.30;;
22778;SDS011;11556;51.194;3.800;2023-08-31T14:55:21;6.70;;;2.33;;
22778;SDS011;11556;51.194;3.800;2023-08-31T14:57:47;8.93;;;2.00;;
22778;SDS011;11556;51.194;3.800;2023-08-31T15:00:12;11.27;;;2.55;;
22778;SDS011;11556;51.194;3.800;2023-08-31T15:02:39;8.20;;;2.90;;
22778;SDS011;11556;51.194;3.800;2023-08-31T15:05:05;14.75;;;2.53;;
22778;SDS011;11556;51.194;3.800;2023-08-31T15:07:31;6.95;;;2.38;;